Time,TemperatureF,DewpointF,PressureIn,WindDirection,WindDirectionDegrees,WindSpeedMPH,WindSpeedGustMPH,Humidity,HourlyPrecipIn,Conditions,Clouds,dailyrainin,SoftwareType,DateUTC
2013-02-28 00:01:00,43.0,42.0,30.24,NE,51,0.0,3.0,96,-99.99,,,-99.99,,2013-02-28 08:01:00,
2013-02-28 00:11:00,43.0,42.0,30.24,NE,51,0.0,3.0,96,-99.99,,,-99.99,,2013-02-28 08:11:00,
2013-02-28 00:21:00,43.0,42.0,30.24,NE,50,1.0,3.0,96,-99.99,,,-99.99,,2013-02-28 08:21:00,
2013-02-28 00:31:00,43.0,42.0,30.24,NE,50,0.0,2.0,96,-99.99,,,-99.99,,2013-02-28 08:31:00,
2013-02-28 00:41:00,43.0,42.0,30.24,NE,50,0.0,2.0,96,-99.99,,,-99.99,,2013-02-28 08:41:00,
2013-02-28 00:52:00,43.0,42.0,30.24,NE,50,0.0,3.0,96,-99.99,,,-99.99,,2013-02-28 08:52:00,
2013-02-28 01:03:00,43.0,42.0,30.24,NE,50,0.0,0.0,96,-99.99,,,-99.99,,2013-02-28 09:03:00,
2013-02-28 01:11:00,43.0,42.0,30.24,NE,50,0.0,0.0,96,-99.99,,,-99.99,,2013-02-28 09:11:00,
2013-02-28 01:21:00,42.0,41.0,30.23,NE,53,0.0,4.0,96,-99.99,,,-99.99,,2013-02-28 09:21:00,
2013-02-28 01:31:00,42.0,41.0,30.23,NNE,26,2.0,4.0,96,-99.99,,,-99.99,,2013-02-28 09:31:00,
2013-02-28 01:41:00,42.0,41.0,30.23,NNE,26,2.0,4.0,96,-99.99,,,-99.99,,2013-02-28 09:41:00,
2013-02-28 01:52:00,42.0,41.0,30.23,NE,52,2.0,5.0,96,-99.99,,,-99.99,,2013-02-28 09:52:00,
2013-02-28 02:01:00,42.0,41.0,30.22,ENE,62,0.0,2.0,96,-99.99,,,-99.99,,2013-02-28 10:01:00,
2013-02-28 02:11:00,42.0,41.0,30.22,ENE,64,1.0,4.0,96,-99.99,,,-99.99,,2013-02-28 10:11:00,
2013-02-28 02:21:00,42.0,41.0,30.22,ENE,64,1.0,4.0,96,-99.99,,,-99.99,,2013-02-28 10:21:00,
2013-02-28 02:31:00,42.0,41.0,30.22,ENE,64,0.0,2.0,96,-99.99,,,-99.99,,2013-02-28 10:31:00,
2013-02-28 02:41:00,42.0,41.0,30.22,ENE,64,0.0,2.0,96,-99.99,,,-99.99,,2013-02-28 10:41:00,
2013-02-28 02:51:00,42.0,41.0,30.21,ENE,64,0.0,2.0,96,-99.99,,,-99.99,,2013-02-28 10:51:00,
2013-02-28 03:01:00,42.0,41.0,30.21,ENE,64,0.0,1.0,96,-99.99,,,-99.99,,2013-02-28 11:01:00,
2013-02-28 03:11:00,42.0,41.0,30.21,ENE,64,0.0,1.0,96,-99.99,,,-99.99,,2013-02-28 11:11:00,
2013-02-28 03:21:00,42.0,41.0,30.22,ENE,64,0.0,0.0,96,-99.99,,,-99.99,,2013-02-28 11:21:00,
2013-02-28 03:31:00,42.0,41.0,30.21,ENE,64,0.0,0.0,96,-99.99,,,-99.99,,2013-02-28 11:31:00,
2013-02-28 03:41:00,42.0,41.0,30.21,ENE,64,0.0,0.0,96,-99.99,,,-99.99,,2013-02-28 11:41:00,
2013-02-28 03:52:00,42.0,41.0,30.21,ENE,64,0.0,0.0,96,-99.99,,,-99.99,,2013-02-28 11:52:00,
2013-02-28 04:01:00,42.0,41.0,30.21,ENE,64,0.0,1.0,96,-99.99,,,-99.99,,2013-02-28 12:01:00,
2013-02-28 04:11:00,42.0,41.0,30.21,ENE,64,0.0,1.0,96,-99.99,,,-99.99,,2013-02-28 12:11:00,
2013-02-28 04:21:00,42.0,41.0,30.20,ENE,64,0.0,1.0,96,-99.99,,,-99.99,,2013-02-28 12:21:00,
2013-02-28 04:31:00,42.0,41.0,30.20,ENE,64,0.0,0.0,96,-99.99,,,-99.99,,2013-02-28 12:31:00,
2013-02-28 04:42:00,42.0,41.0,30.20,ENE,64,0.0,0.0,96,-99.99,,,-99.99,,2013-02-28 12:42:00,
2013-02-28 04:52:00,42.0,41.0,30.19,ENE,64,0.0,1.0,96,-99.99,,,-99.99,,2013-02-28 12:52:00,
2013-02-28 05:01:00,42.0,41.0,30.19,ENE,64,0.0,0.0,96,-99.99,,,-99.99,,2013-02-28 13:01:00,
2013-02-28 05:11:00,42.0,41.0,30.19,ENE,64,0.0,0.0,96,-99.99,,,-99.99,,2013-02-28 13:11:00,
2013-02-28 05:21:00,42.0,41.0,30.19,ENE,64,0.0,0.0,96,-99.99,,,-99.99,,2013-02-28 13:21:00,
2013-02-28 05:31:00,42.0,41.0,30.19,ENE,64,0.0,0.0,96,-99.99,,,-99.99,,2013-02-28 13:31:00,
2013-02-28 05:41:00,42.0,41.0,30.19,ENE,64,0.0,0.0,96,-99.99,,,-99.99,,2013-02-28 13:41:00,
2013-02-28 05:52:00,42.0,41.0,30.19,ENE,64,0.0,0.0,96,-99.99,,,-99.99,,2013-02-28 13:52:00,
2013-02-28 06:01:00,42.0,41.0,30.19,ENE,64,0.0,0.0,96,-99.99,,,-99.99,,2013-02-28 14:01:00,
2013-02-28 06:11:00,42.0,41.0,30.18,ENE,64,0.0,0.0,96,-99.99,,,-99.99,,2013-02-28 14:11:00,
2013-02-28 06:21:00,42.0,41.0,30.18,ENE,64,0.0,0.0,96,-99.99,,,-99.99,,2013-02-28 14:21:00,
2013-02-28 06:31:00,42.0,41.0,30.18,ENE,64,0.0,0.0,96,-99.99,,,-99.99,,2013-02-28 14:31:00,
2013-02-28 06:41:00,42.0,41.0,30.18,ENE,64,0.0,0.0,96,-99.99,,,-99.99,,2013-02-28 14:41:00,
2013-02-28 06:52:00,42.0,41.0,30.18,ENE,64,0.0,0.0,96,-99.99,,,-99.99,,2013-02-28 14:52:00,
2013-02-28 07:01:00,42.0,41.0,30.18,ENE,64,0.0,0.0,96,-99.99,,,-99.99,,2013-02-28 15:01:00,
2013-02-28 07:11:00,42.0,41.0,30.18,ENE,64,0.0,1.0,96,-99.99,,,-99.99,,2013-02-28 15:11:00,
2013-02-28 07:21:00,42.0,41.0,30.18,ENE,64,0.0,1.0,96,-99.99,,,-99.99,,2013-02-28 15:21:00,
2013-02-28 07:31:00,42.0,41.0,30.18,ENE,64,0.0,2.0,96,-99.99,,,-99.99,,2013-02-28 15:31:00,
2013-02-28 07:41:00,42.0,41.0,30.18,ENE,64,0.0,2.0,96,-99.99,,,-99.99,,2013-02-28 15:41:00,
2013-02-28 07:51:00,42.0,41.0,30.16,ENE,64,0.0,0.0,96,-99.99,,,-99.99,,2013-02-28 15:51:00,
2013-02-28 08:01:00,42.0,41.0,30.16,ENE,64,0.0,1.0,96,-99.99,,,-99.99,,2013-02-28 16:01:00,
2013-02-28 08:11:00,42.0,41.0,30.16,ENE,64,0.0,0.0,96,-99.99,,,-99.99,,2013-02-28 16:11:00,
2013-02-28 08:21:00,42.0,41.0,30.16,ENE,64,0.0,0.0,96,-99.99,,,-99.99,,2013-02-28 16:21:00,
2013-02-28 08:31:00,42.0,41.0,30.16,ENE,64,0.0,1.0,96,-99.99,,,-99.99,,2013-02-28 16:31:00,
2013-02-28 08:41:00,42.0,41.0,30.16,ENE,64,0.0,1.0,96,-99.99,,,-99.99,,2013-02-28 16:41:00,
2013-02-28 08:52:00,42.0,41.0,30.16,ENE,64,0.0,1.0,96,-99.99,,,-99.99,,2013-02-28 16:52:00,
2013-02-28 09:01:00,43.0,42.0,30.17,SSE,168,0.0,2.0,96,-99.99,,,-99.99,,2013-02-28 17:01:00,
2013-02-28 09:11:00,43.0,42.0,30.17,SSE,168,0.0,1.0,96,-99.99,,,-99.99,,2013-02-28 17:11:00,
2013-02-28 09:21:00,43.0,42.0,30.17,SSE,168,0.0,1.0,96,-99.99,,,-99.99,,2013-02-28 17:21:00,
2013-02-28 09:32:00,43.0,42.0,30.18,SSE,168,0.0,0.0,97,-99.99,,,-99.99,,2013-02-28 17:32:00,
2013-02-28 09:41:00,43.0,42.0,30.18,SSE,168,0.0,0.0,97,-99.99,,,-99.99,,2013-02-28 17:41:00,
2013-02-28 09:52:00,43.0,42.0,30.17,SSE,168,0.0,3.0,97,-99.99,,,-99.99,,2013-02-28 17:52:00,
2013-02-28 10:01:00,43.0,42.0,30.17,SSE,160,0.0,2.0,97,-99.99,,,-99.99,,2013-02-28 18:01:00,
2013-02-28 10:11:00,44.0,43.0,30.18,SE,144,0.0,2.0,97,-99.99,,,-99.99,,2013-02-28 18:11:00,
2013-02-28 10:21:00,44.0,43.0,30.18,SE,144,0.0,2.0,97,-99.99,,,-99.99,,2013-02-28 18:21:00,
2013-02-28 10:31:00,44.0,43.0,30.18,SE,144,0.0,2.0,97,-99.99,,,-99.99,,2013-02-28 18:31:00,
2013-02-28 10:41:00,44.0,43.0,30.18,SE,144,0.0,0.0,97,-99.99,,,-99.99,,2013-02-28 18:41:00,
2013-02-28 10:52:00,44.0,43.0,30.18,SE,144,0.0,0.0,97,-99.99,,,-99.99,,2013-02-28 18:52:00,
2013-02-28 11:01:00,44.0,43.0,30.18,SE,144,0.0,2.0,97,-99.99,,,-99.99,,2013-02-28 19:01:00,
2013-02-28 11:11:00,44.0,43.0,30.18,SE,144,0.0,2.0,97,-99.99,,,-99.99,,2013-02-28 19:11:00,
2013-02-28 11:21:00,44.0,43.0,30.19,SSE,155,0.0,4.0,97,-99.99,,,-99.99,,2013-02-28 19:21:00,
2013-02-28 11:31:00,44.0,43.0,30.19,SSE,159,1.0,4.0,97,-99.99,,,-99.99,,2013-02-28 19:31:00,
2013-02-28 11:41:00,44.0,43.0,30.19,SSE,159,1.0,4.0,97,-99.99,,,-99.99,,2013-02-28 19:41:00,
2013-02-28 11:52:00,45.0,44.0,30.19,SSE,159,2.0,7.0,97,-99.99,,,-99.99,,2013-02-28 19:52:00,
2013-02-28 12:01:00,45.0,44.0,30.19,SSE,154,1.0,6.0,97,-99.99,,,-99.99,,2013-02-28 20:01:00,
2013-02-28 12:11:00,45.0,44.0,30.19,SSE,154,1.0,6.0,97,-99.99,,,-99.99,,2013-02-28 20:11:00,
2013-02-28 12:21:00,45.0,44.0,30.19,South,178,1.0,7.0,97,-99.99,,,-99.99,,2013-02-28 20:21:00,
2013-02-28 12:31:00,46.0,45.0,30.20,SSW,200,0.0,5.0,97,-99.99,,,-99.99,,2013-02-28 20:31:00,
2013-02-28 12:41:00,46.0,45.0,30.20,SSW,200,0.0,5.0,97,-99.99,,,-99.99,,2013-02-28 20:41:00,
2013-02-28 12:52:00,46.0,45.0,30.20,SSE,153,0.0,5.0,97,-99.99,,,-99.99,,2013-02-28 20:52:00,
2013-02-28 13:01:00,46.0,45.0,30.20,SSE,152,4.0,9.0,97,-99.99,,,-99.99,,2013-02-28 21:01:00,
2013-02-28 13:11:00,46.0,45.0,30.20,SSE,152,4.0,9.0,97,-99.99,,,-99.99,,2013-02-28 21:11:00,
2013-02-28 13:22:00,47.0,46.0,30.19,SSE,151,3.0,11.0,97,-99.99,,,-99.99,,2013-02-28 21:22:00,
2013-02-28 13:31:00,47.0,46.0,30.19,SSE,150,3.0,11.0,96,-99.99,,,-99.99,,2013-02-28 21:31:00,
2013-02-28 13:41:00,47.0,46.0,30.19,SSE,150,3.0,11.0,96,-99.99,,,-99.99,,2013-02-28 21:41:00,
2013-02-28 13:52:00,47.0,46.0,30.19,SE,141,2.0,9.0,96,-99.99,,,-99.99,,2013-02-28 21:52:00,
2013-02-28 14:01:00,47.0,46.0,30.21,SE,146,0.0,6.0,96,-99.99,,,-99.99,,2013-02-28 22:01:00,
2013-02-28 14:11:00,48.0,47.0,30.21,ESE,120,2.0,5.0,96,-99.99,,,-99.99,,2013-02-28 22:11:00,
2013-02-28 14:21:00,48.0,47.0,30.21,ESE,120,2.0,5.0,96,-99.99,,,-99.99,,2013-02-28 22:21:00,
2013-02-28 14:31:00,48.0,47.0,30.21,SSE,152,1.0,4.0,95,-99.99,,,-99.99,,2013-02-28 22:31:00,
2013-02-28 14:41:00,48.0,47.0,30.21,SSE,152,1.0,4.0,95,-99.99,,,-99.99,,2013-02-28 22:41:00,
2013-02-28 14:52:00,48.0,47.0,30.22,SE,139,0.0,7.0,95,-99.99,,,-99.99,,2013-02-28 22:52:00,
2013-02-28 15:01:00,48.0,47.0,30.22,SE,134,1.0,6.0,95,-99.99,,,-99.99,,2013-02-28 23:01:00,
2013-02-28 15:11:00,49.0,48.0,30.22,SE,144,2.0,6.0,95,-99.99,,,-99.99,,2013-02-28 23:11:00,
2013-02-28 15:21:00,49.0,48.0,30.22,SE,144,2.0,6.0,95,-99.99,,,-99.99,,2013-02-28 23:21:00,
2013-02-28 15:31:00,49.0,48.0,30.24,South,170,0.0,4.0,95,-99.99,,,-99.99,,2013-02-28 23:31:00,
2013-02-28 15:41:00,49.0,48.0,30.24,South,170,0.0,4.0,95,-99.99,,,-99.99,,2013-02-28 23:41:00,
2013-02-28 15:52:00,49.0,48.0,30.24,SE,144,1.0,4.0,95,-99.99,,,-99.99,,2013-02-28 23:52:00,
2013-02-28 16:01:00,49.0,48.0,30.24,SSE,154,1.0,7.0,95,-99.99,,,-99.99,,2013-03-01 00:01:00,
2013-02-28 16:11:00,49.0,48.0,30.24,SSE,154,1.0,7.0,95,-99.99,,,-99.99,,2013-03-01 00:11:00,
2013-02-28 16:22:00,50.0,49.0,30.24,SSE,161,2.0,5.0,95,-99.99,,,-99.99,,2013-03-01 00:22:00,
2013-02-28 16:32:00,50.0,49.0,30.24,SE,142,2.0,5.0,95,-99.99,,,-99.99,,2013-03-01 00:32:00,
2013-02-28 16:41:00,50.0,49.0,30.24,SE,142,2.0,5.0,95,-99.99,,,-99.99,,2013-03-01 00:41:00,
2013-02-28 16:52:00,50.0,49.0,30.24,SSE,162,7.0,11.0,95,-99.99,,,-99.99,,2013-03-01 00:52:00,
2013-02-28 17:01:00,50.0,49.0,30.23,SSE,152,2.0,9.0,95,-99.99,,,-99.99,,2013-03-01 01:01:00,
2013-02-28 17:11:00,50.0,49.0,30.24,SSE,148,5.0,12.0,95,-99.99,,,-99.99,,2013-03-01 01:11:00,
2013-02-28 17:21:00,50.0,49.0,30.24,SSE,148,5.0,12.0,95,-99.99,,,-99.99,,2013-03-01 01:21:00,
2013-02-28 17:31:00,50.0,49.0,30.23,SSE,157,6.0,11.0,95,-99.99,,,-99.99,,2013-03-01 01:31:00,
2013-02-28 17:41:00,50.0,49.0,30.23,SSE,157,6.0,11.0,95,-99.99,,,-99.99,,2013-03-01 01:41:00,
2013-02-28 17:51:00,50.0,49.0,30.23,SSE,160,7.0,12.0,95,-99.99,,,-99.99,,2013-03-01 01:51:00,
2013-02-28 18:01:00,50.0,49.0,30.22,SSE,165,5.0,14.0,96,-99.99,,,-99.99,,2013-03-01 02:01:00,
2013-02-28 18:11:00,50.0,49.0,30.23,SSE,152,3.0,10.0,96,-99.99,,,-99.99,,2013-03-01 02:11:00,
2013-02-28 18:21:00,50.0,49.0,30.23,SSE,152,3.0,10.0,96,-99.99,,,-99.99,,2013-03-01 02:21:00,
2013-02-28 18:31:00,50.0,49.0,30.23,SSE,150,4.0,7.0,96,-99.99,,,-99.99,,2013-03-01 02:31:00,
2013-02-28 18:41:00,50.0,49.0,30.23,SSE,150,4.0,7.0,96,-99.99,,,-99.99,,2013-03-01 02:41:00,
2013-02-28 18:52:00,51.0,50.0,30.22,South,179,4.0,15.0,96,-99.99,,,-99.99,,2013-03-01 02:52:00,
2013-02-28 19:01:00,51.0,50.0,30.24,SSE,165,4.0,17.0,95,-99.99,,,-99.99,,2013-03-01 03:01:00,
2013-02-28 19:11:00,51.0,49.0,30.24,SSE,165,5.0,20.0,94,-99.99,,,-99.99,,2013-03-01 03:11:00,
2013-02-28 19:21:00,51.0,49.0,30.24,SSE,165,5.0,20.0,94,-99.99,,,-99.99,,2013-03-01 03:21:00,
2013-02-28 19:31:00,51.0,49.0,30.24,SSE,165,2.0,16.0,93,-99.99,,,-99.99,,2013-03-01 03:31:00,
2013-02-28 19:41:00,51.0,49.0,30.24,SSE,165,2.0,16.0,93,-99.99,,,-99.99,,2013-03-01 03:41:00,
2013-02-28 19:51:00,52.0,50.0,30.26,South,188,2.0,10.0,93,-99.99,,,-99.99,,2013-03-01 03:51:00,
2013-02-28 20:01:00,52.0,50.0,30.26,South,183,4.0,16.0,93,-99.99,,,-99.99,,2013-03-01 04:01:00,
2013-02-28 20:11:00,52.0,50.0,30.26,South,183,4.0,16.0,93,-99.99,,,-99.99,,2013-03-01 04:11:00,
2013-02-28 20:21:00,52.0,50.0,30.26,South,191,6.0,16.0,92,-99.99,,,-99.99,,2013-03-01 04:21:00,
2013-02-28 20:31:00,52.0,50.0,30.26,SSE,161,2.0,14.0,92,-99.99,,,-99.99,,2013-03-01 04:31:00,
2013-02-28 20:41:00,52.0,50.0,30.26,SSE,161,2.0,14.0,92,-99.99,,,-99.99,,2013-03-01 04:41:00,
2013-02-28 20:51:00,52.0,50.0,30.26,SSE,161,2.0,14.0,92,-99.99,,,-99.99,,2013-03-01 04:51:00,
2013-02-28 21:01:00,52.0,50.0,30.26,South,189,3.0,14.0,92,-99.99,,,-99.99,,2013-03-01 05:01:00,
2013-02-28 21:11:00,52.0,50.0,30.26,South,189,3.0,14.0,92,-99.99,,,-99.99,,2013-03-01 05:11:00,
2013-02-28 21:22:00,52.0,50.0,30.27,South,171,4.0,13.0,92,-99.99,,,-99.99,,2013-03-01 05:22:00,
2013-02-28 21:32:00,51.0,49.0,30.27,South,178,3.0,10.0,93,-99.99,,,-99.99,,2013-03-01 05:32:00,
2013-02-28 21:41:00,51.0,49.0,30.27,South,178,3.0,10.0,93,-99.99,,,-99.99,,2013-03-01 05:41:00,
2013-02-28 21:52:00,51.0,49.0,30.28,SSW,199,6.0,11.0,94,-99.99,,,-99.99,,2013-03-01 05:52:00,
2013-02-28 22:01:00,51.0,49.0,30.28,SSW,206,2.0,10.0,94,-99.99,,,-99.99,,2013-03-01 06:01:00,
2013-02-28 22:11:00,51.0,49.0,30.29,SSE,163,4.0,11.0,94,-99.99,,,-99.99,,2013-03-01 06:11:00,
2013-02-28 22:21:00,51.0,49.0,30.29,SSE,163,4.0,11.0,94,-99.99,,,-99.99,,2013-03-01 06:21:00,
2013-02-28 22:31:00,51.0,50.0,30.29,SSE,162,1.0,10.0,95,-99.99,,,-99.99,,2013-03-01 06:31:00,
2013-02-28 22:41:00,51.0,50.0,30.29,SSE,162,1.0,10.0,95,-99.99,,,-99.99,,2013-03-01 06:41:00,
2013-02-28 22:52:00,51.0,50.0,30.29,South,190,3.0,12.0,95,-99.99,,,-99.99,,2013-03-01 06:52:00,
2013-02-28 23:01:00,51.0,50.0,30.29,South,178,3.0,15.0,95,-99.99,,,-99.99,,2013-03-01 07:01:00,
2013-02-28 23:11:00,51.0,50.0,30.29,South,178,3.0,15.0,95,-99.99,,,-99.99,,2013-03-01 07:11:00,
2013-02-28 23:21:00,51.0,50.0,30.29,SSE,151,2.0,10.0,95,-99.99,,,-99.99,,2013-03-01 07:21:00,
2013-02-28 23:32:00,51.0,50.0,30.29,SSE,163,2.0,9.0,95,-99.99,,,-99.99,,2013-03-01 07:32:00,
2013-02-28 23:41:00,51.0,50.0,30.29,SSE,163,2.0,9.0,95,-99.99,,,-99.99,,2013-03-01 07:41:00,
2013-02-28 23:52:00,51.0,50.0,30.29,SE,133,2.0,10.0,95,-99.99,,,-99.99,,2013-03-01 07:52:00,